Angus, New Mexico
Current Conditions -  °F | °C
As of 11:55 PM on Saturday 22 Nov 2014 (Local Time) from KSRR Reporting Station
Clear Clear  
Wind Chill: 42°   Ceiling: Unl
Heat Index: 48°   Visibility: 10mi
Dew Point: 16°   Wind: 17mph
Humidity: 27%   Direction: 270°W
Pressure: 29.84"   Gusts: 26mph
Location:  33.7233°N, 105.25°W
Report Text: KSRR 230655Z AUTO 27015G23KT 10SM CLR 09/M09 A2984 RMK AO2
Loading
Personal Weather Stations






























Interactive Weather Map New forecast layout! Learn more

10-Day Weather Forecast

Advertisements
Track Severe Weather on mobile